Time;durP1;ratioP1;P1;durP2;ratioP2;P2;SDS_P1;SDS_P2;PMS_P1;PMS_P2;Temp;Humidity;BMP_temperature;BMP_pressure;BME280_temperature;BME280_humidity;BME280_pressure;Samples;Min_cycle;Max_cycle;Signal;HPM_P1;HPM_P2
2023/06/04 00:00:50;;;;;;;;;6.50;6.50;;;;;20.80;37.52;100958.00;5052622;28;45581;-76
2023/06/04 00:06:37;;;;;;;;;5.75;4.75;;;;;20.68;37.43;100950.50;5053729;28;45631;-76
2023/06/04 00:09:03;;;;;;;;;5.00;4.25;;;;;20.63;37.77;100955.50;5053463;28;45571;-75
2023/06/04 00:11:28;;;;;;;;;4.00;3.75;;;;;20.57;37.55;100954.34;5054202;28;45513;-76
2023/06/04 00:13:53;;;;;;;;;7.00;6.25;;;;;20.50;37.51;100951.53;5052118;28;47283;-75
2023/06/04 00:16:19;;;;;;;;;6.25;4.00;;;;;20.47;37.99;100953.66;5052418;28;47413;-75
2023/06/04 00:18:44;;;;;;;;;5.50;5.00;;;;;20.41;37.78;100943.66;5052302;28;46010;-76
2023/06/04 00:21:10;;;;;;;;;7.00;7.00;;;;;20.37;38.18;100947.66;5053795;28;45802;-75
2023/06/04 00:23:35;;;;;;;;;4.00;3.75;;;;;20.35;37.94;100955.81;5053378;28;46351;-76
2023/06/04 00:26:00;;;;;;;;;5.75;5.00;;;;;20.32;38.00;100957.97;5053648;28;46039;-75
2023/06/04 00:28:26;;;;;;;;;5.25;5.00;;;;;20.32;38.08;100963.28;5051719;28;45719;-75
2023/06/04 00:30:51;;;;;;;;;7.00;5.75;;;;;20.32;38.12;100963.28;5053840;28;45629;-75
2023/06/04 00:36:39;;;;;;;;;4.00;4.00;;;;;20.25;38.32;100960.41;5053293;28;46033;-74
2023/06/04 00:39:05;;;;;;;;;8.00;5.00;;;;;20.21;38.04;100966.22;5052933;28;45717;-75
2023/06/04 00:41:30;;;;;;;;;3.50;3.50;;;;;20.15;38.51;100967.69;5053685;28;45586;-76
2023/06/04 00:43:56;;;;;;;;;5.00;4.00;;;;;20.12;38.27;100973.38;5053179;28;47480;-74
2023/06/04 00:53:31;;;;;;;;;3.00;3.00;;;;;19.87;38.73;100966.25;5013320;28;45672;-74
2023/06/04 00:55:57;;;;;;;;;5.50;5.00;;;;;19.78;38.96;100962.75;5013150;28;46297;-74
2023/06/04 00:58:24;;;;;;;;;5.00;5.00;;;;;19.69;39.15;100963.72;5012821;28;47351;-75
2023/06/04 01:00:54;;;;;;;;;5.25;5.00;;;;;19.63;39.12;100967.84;5011957;28;45626;-75
2023/06/04 01:06:44;;;;;;;;;5.25;4.00;;;;;19.48;39.65;100965.94;5012828;28;46020;-76
2023/06/04 01:09:10;;;;;;;;;5.50;5.00;;;;;19.45;39.44;100967.06;5012912;28;46356;-77
2023/06/04 01:11:38;;;;;;;;;4.75;4.00;;;;;19.44;39.41;100977.81;5013094;28;45711;-77
2023/06/04 01:14:05;;;;;;;;;6.00;5.00;;;;;19.43;39.22;100976.19;5013193;28;45527;-77
2023/06/04 01:16:38;;;;;;;;;5.00;5.00;;;;;19.41;39.60;100964.84;5013120;28;46248;-76
2023/06/04 01:23:11;;;;;;;;;7.00;5.50;;;;;19.37;39.58;100971.50;5012746;28;45609;-76
2023/06/04 01:25:41;;;;;;;;;4.25;4.25;;;;;19.36;40.01;100967.16;5012850;28;45975;-76
2023/06/04 01:28:11;;;;;;;;;3.00;2.25;;;;;19.32;39.52;100966.66;5012704;28;46540;-76
2023/06/04 01:30:42;;;;;;;;;5.25;4.75;;;;;19.30;39.92;100965.97;5012922;28;45906;-76
2023/06/04 01:33:09;;;;;;;;;7.50;6.00;;;;;19.26;39.78;100956.63;5012591;28;45638;-75
2023/06/04 01:35:34;;;;;;;;;5.00;5.00;;;;;19.23;39.91;100962.25;5012790;28;45655;-77
2023/06/04 01:38:01;;;;;;;;;6.00;6.00;;;;;19.20;39.96;100955.44;5012472;28;45597;-76
2023/06/04 01:40:27;;;;;;;;;4.00;4.00;;;;;19.21;39.58;100959.78;5012408;28;47284;-76
2023/06/04 01:42:52;;;;;;;;;5.00;5.00;;;;;19.20;39.93;100957.25;5012514;28;45574;-76
2023/06/04 01:45:18;;;;;;;;;4.50;4.00;;;;;19.21;39.69;100970.41;5013822;28;45757;-76
2023/06/04 01:47:43;;;;;;;;;4.00;4.00;;;;;19.20;39.96;100973.19;5015824;28;46562;-77
2023/06/04 01:50:09;;;;;;;;;5.00;5.00;;;;;19.19;39.95;100971.53;5014582;28;47033;-75
2023/06/04 01:52:38;;;;;;;;;5.25;4.50;;;;;19.17;40.13;100974.34;5044010;28;45612;-77
2023/06/04 01:55:05;;;;;;;;;6.50;5.00;;;;;19.13;39.91;100975.63;5055858;28;45617;-76
2023/06/04 01:57:30;;;;;;;;;3.75;3.75;;;;;19.10;39.83;100972.47;5055431;28;47443;-76
2023/06/04 01:59:56;;;;;;;;;6.00;6.00;;;;;19.05;40.12;100978.25;5054302;28;48187;-76
2023/06/04 02:02:21;;;;;;;;;6.00;4.50;;;;;18.99;40.32;100970.06;5054219;28;45809;-75
2023/06/04 02:04:47;;;;;;;;;4.00;4.00;;;;;18.97;39.98;100972.03;5054437;28;46106;-76
2023/06/04 02:07:20;;;;;;;;;4.25;4.25;;;;;18.92;40.65;100971.66;5055313;28;46870;-76
2023/06/04 02:09:46;;;;;;;;;5.00;4.50;;;;;18.90;40.72;100974.44;5055531;28;47061;-77
2023/06/04 02:12:12;;;;;;;;;5.25;4.25;;;;;18.88;40.37;100968.47;5055497;28;45716;-76
2023/06/04 02:14:37;;;;;;;;;5.00;4.00;;;;;18.86;40.38;100971.28;5055566;28;45571;-75
2023/06/04 02:17:04;;;;;;;;;5.50;5.00;;;;;18.84;40.33;100975.06;5053917;28;46376;-76
2023/06/04 02:22:51;;;;;;;;;6.75;5.00;;;;;18.75;40.71;100983.97;5055471;28;45538;-76
2023/06/04 02:25:16;;;;;;;;;5.00;4.00;;;;;18.71;40.60;100982.59;5054476;28;45512;-77
2023/06/04 02:27:42;;;;;;;;;4.00;4.00;;;;;18.68;40.72;100977.56;5053753;28;48537;-77
2023/06/04 02:30:08;;;;;;;;;4.50;4.00;;;;;18.65;40.68;100978.72;5055637;28;45533;-75
2023/06/04 02:32:35;;;;;;;;;3.00;3.00;;;;;18.61;40.84;100979.19;5055016;28;45816;-76
2023/06/04 02:35:01;;;;;;;;;5.25;4.25;;;;;18.56;41.18;100982.31;5055343;28;45700;-76
2023/06/04 02:37:26;;;;;;;;;4.00;4.00;;;;;18.51;40.84;100981.91;5054740;28;46251;-75
2023/06/04 02:39:52;;;;;;;;;4.00;4.00;;;;;18.48;40.69;100982.19;5053902;28;46487;-75
2023/06/04 02:42:17;;;;;;;;;4.50;3.00;;;;;18.48;41.42;100986.66;5055131;28;45507;-75
2023/06/04 02:44:42;;;;;;;;;3.75;3.50;;;;;18.41;41.68;100984.59;5055422;28;45704;-75
2023/06/04 02:47:08;;;;;;;;;4.00;4.00;;;;;18.37;41.38;100985.03;5054761;28;46494;-75
2023/06/04 02:52:55;;;;;;;;;5.25;4.25;;;;;18.26;41.62;100993.22;5046742;28;45834;-75
2023/06/04 02:55:20;;;;;;;;;4.50;4.50;;;;;18.22;41.67;100990.03;5054123;28;45667;-75
2023/06/04 02:57:46;;;;;;;;;7.25;3.50;;;;;18.17;41.68;100986.16;5054714;28;46467;-76
2023/06/04 03:00:13;;;;;;;;;4.00;4.00;;;;;18.13;41.86;100987.44;5053514;28;46971;-76
2023/06/04 03:02:44;;;;;;;;;4.00;3.50;;;;;18.12;41.48;100991.06;5054541;28;45546;-77
2023/06/04 03:05:12;;;;;;;;;3.75;3.75;;;;;18.09;41.50;100989.53;5054782;28;45763;-75
2023/06/04 03:07:38;;;;;;;;;5.75;4.00;;;;;18.09;41.67;100978.94;5054076;28;47278;-75
2023/06/04 03:10:04;;;;;;;;;5.00;4.00;;;;;18.05;41.99;100980.22;5053197;28;46277;-75
2023/06/04 03:12:29;;;;;;;;;5.00;4.75;;;;;18.06;41.85;100986.34;5054765;28;45608;-74
2023/06/04 03:14:55;;;;;;;;;4.00;3.00;;;;;18.00;42.08;100978.00;5054592;28;45640;-76
2023/06/04 03:17:20;;;;;;;;;2.75;2.75;;;;;18.01;41.52;100982.34;5054331;28;46493;-76
2023/06/04 03:23:07;;;;;;;;;4.25;4.00;;;;;17.99;41.83;100976.34;5054156;28;45697;-75
2023/06/04 03:25:33;;;;;;;;;4.75;3.25;;;;;17.97;41.60;100977.50;5054776;28;45519;-76
2023/06/04 03:27:58;;;;;;;;;5.00;5.00;;;;;17.96;42.09;100976.66;5054150;28;45643;-76
2023/06/04 03:30:23;;;;;;;;;5.00;2.50;;;;;17.94;42.08;100969.81;5054232;28;46753;-76
2023/06/04 03:32:49;;;;;;;;;4.50;3.00;;;;;17.91;42.16;100967.47;5052931;28;45649;-74
2023/06/04 03:35:14;;;;;;;;;3.00;3.00;;;;;17.90;41.70;100971.09;5052880;28;45595;-76
2023/06/04 03:37:40;;;;;;;;;3.25;3.25;;;;;17.90;42.12;100977.22;5054012;28;46340;-74
2023/06/04 03:40:06;;;;;;;;;3.25;3.25;;;;;17.88;41.87;100967.75;5052690;28;48241;-76
2023/06/04 03:42:31;;;;;;;;;4.00;3.25;;;;;17.91;41.74;100976.25;5054343;28;45829;-75
2023/06/04 03:44:58;;;;;;;;;5.50;5.00;;;;;17.91;41.92;100973.59;5052781;28;45798;-76
2023/06/04 03:47:23;;;;;;;;;4.25;4.00;;;;;17.90;41.71;100971.94;5053573;28;46331;-77
2023/06/04 03:53:10;;;;;;;;;4.75;4.75;;;;;17.91;42.16;100978.06;5051266;28;45695;-76
2023/06/04 03:55:36;;;;;;;;;3.50;3.25;;;;;17.90;42.24;100977.22;5053952;28;45659;-76
2023/06/04 03:58:02;;;;;;;;;4.75;3.75;;;;;17.87;42.05;100984.63;5053626;28;46484;-76
2023/06/04 04:00:28;;;;;;;;;4.25;3.75;;;;;17.85;42.04;100982.16;5053897;28;45902;-75
2023/06/04 04:02:53;;;;;;;;;3.75;3.50;;;;;17.83;41.97;100994.69;5053797;28;45817;-75
2023/06/04 04:08:44;;;;;;;;;4.25;4.00;;;;;17.79;41.69;100993.31;5052681;28;45732;-75
2023/06/04 04:11:13;;;;;;;;;5.25;3.25;;;;;17.78;41.67;100994.31;5053937;28;46039;-76
2023/06/04 04:13:39;;;;;;;;;5.75;4.75;;;;;17.76;41.94;100992.78;5053710;28;45747;-77
2023/06/04 04:16:04;;;;;;;;;6.25;4.25;;;;;17.74;42.18;100995.59;5054029;28;45772;-75
2023/06/04 04:18:34;;;;;;;;;4.75;4.75;;;;;17.75;42.14;100999.91;5053514;28;45650;-74
2023/06/04 04:21:00;;;;;;;;;3.25;3.00;;;;;17.74;41.76;100994.75;5053741;28;45909;-74
2023/06/04 04:23:27;;;;;;;;;4.50;3.00;;;;;17.74;42.09;101000.03;5053872;28;45780;-75
2023/06/04 04:25:53;;;;;;;;;4.25;3.25;;;;;17.72;41.83;100999.34;5053736;28;45559;-76
2023/06/04 04:28:19;;;;;;;;;4.25;3.00;;;;;17.71;41.72;100997.66;5053364;28;45509;-77
2023/06/04 04:30:46;;;;;;;;;4.00;4.00;;;;;17.70;41.72;100993.38;5053668;28;46014;-77
2023/06/04 04:33:15;;;;;;;;;3.50;3.00;;;;;17.69;41.62;100997.84;5053530;28;45610;-77
2023/06/04 04:39:02;;;;;;;;;4.75;3.75;;;;;17.69;42.11;100997.00;5053260;28;45964;-77
2023/06/04 04:41:28;;;;;;;;;3.00;2.75;;;;;17.71;41.68;100997.66;5053182;28;45510;-78
2023/06/04 04:43:54;;;;;;;;;4.00;3.50;;;;;17.69;41.73;100999.66;5053543;28;45654;-77
2023/06/04 04:46:20;;;;;;;;;3.25;3.25;;;;;17.68;42.01;101005.94;5053708;28;45447;-78
2023/06/04 04:48:45;;;;;;;;;4.00;3.00;;;;;17.64;41.95;101004.56;5053156;28;45513;-76
2023/06/04 04:51:10;;;;;;;;;4.00;3.50;;;;;17.63;42.06;101003.72;5053243;28;46518;-75
2023/06/04 04:53:36;;;;;;;;;4.00;4.00;;;;;17.61;41.67;101006.50;5053022;28;45517;-75
2023/06/04 04:56:01;;;;;;;;;3.00;3.00;;;;;17.57;42.16;101007.75;5053218;28;45512;-77
2023/06/04 04:58:26;;;;;;;;;3.25;3.00;;;;;17.53;41.75;101006.38;5052675;28;46436;-76
2023/06/04 05:00:52;;;;;;;;;3.75;3.00;;;;;17.52;42.12;101006.50;5053011;28;46394;-76
2023/06/04 05:03:17;;;;;;;;;3.25;3.25;;;;;17.51;42.11;101010.13;5052890;28;45636;-76
2023/06/04 05:09:04;;;;;;;;;3.00;3.00;;;;;17.49;42.04;101014.75;5052712;28;45530;-78
2023/06/04 05:11:29;;;;;;;;;3.25;3.00;;;;;17.48;42.21;101013.91;5051407;28;47251;-75
2023/06/04 05:13:55;;;;;;;;;4.50;3.00;;;;;17.48;41.84;101013.91;5053047;28;45561;-79
2023/06/04 05:16:22;;;;;;;;;4.75;3.00;;;;;17.49;41.99;101012.91;5051465;28;45625;-77
2023/06/04 05:18:48;;;;;;;;;3.75;3.00;;;;;17.46;42.09;101018.50;5052910;28;45697;-75
2023/06/04 05:21:13;;;;;;;;;2.50;2.50;;;;;17.46;42.10;101017.66;5054958;28;45549;-74
2023/06/04 05:23:39;;;;;;;;;4.00;2.25;;;;;17.42;42.26;101017.13;5056530;28;45573;-76
2023/06/04 05:26:05;;;;;;;;;3.00;3.00;;;;;17.44;42.08;101022.25;5056648;28;45635;-76
2023/06/04 05:28:33;;;;;;;;;3.75;3.00;;;;;17.43;41.82;101031.22;5055944;28;45671;-75
2023/06/04 05:30:59;;;;;;;;;3.50;3.00;;;;;17.40;42.14;101016.44;5056399;28;45763;-76
2023/06/04 05:33:30;;;;;;;;;3.00;3.00;;;;;17.41;42.05;101015.44;5056583;28;45541;-76
2023/06/04 05:39:18;;;;;;;;;3.00;3.00;;;;;17.41;42.06;101025.22;5055994;28;45640;-75
2023/06/04 05:41:45;;;;;;;;;4.50;4.00;;;;;17.38;42.03;101026.31;5054914;28;46739;-76
2023/06/04 05:44:10;;;;;;;;;3.75;3.50;;;;;17.39;42.38;101028.00;5055889;28;45604;-79
2023/06/04 05:46:36;;;;;;;;;3.00;2.50;;;;;17.38;42.20;101023.66;5055350;28;45613;-78
2023/06/04 05:49:02;;;;;;;;;3.00;2.75;;;;;17.37;42.20;101031.78;5056081;28;46325;-77
2023/06/04 05:51:27;;;;;;;;;4.00;3.00;;;;;17.37;42.07;101029.13;5056075;28;45708;-76
2023/06/04 05:53:53;;;;;;;;;4.00;3.00;;;;;17.37;42.28;101040.56;5056573;28;45624;-78
2023/06/04 05:56:18;;;;;;;;;3.00;3.00;;;;;17.38;42.00;101041.41;5056666;28;45593;-74
2023/06/04 05:58:43;;;;;;;;;3.50;2.50;;;;;17.38;42.23;101039.56;5054579;28;47937;-76
2023/06/04 06:01:09;;;;;;;;;2.50;2.00;;;;;17.44;42.27;101044.28;5055766;28;45620;-74
2023/06/04 06:03:34;;;;;;;;;3.00;3.00;;;;;17.47;42.30;101049.31;5055727;28;45629;-75
2023/06/04 06:09:22;;;;;;;;;2.25;2.00;;;;;17.51;41.68;101052.50;5055402;28;45617;-74
2023/06/04 06:11:47;;;;;;;;;2.00;2.00;;;;;17.51;42.27;101058.66;5055517;28;46563;-76
2023/06/04 06:14:12;;;;;;;;;1.75;1.00;;;;;17.50;42.05;101051.69;5053994;28;45609;-77
2023/06/04 06:16:41;;;;;;;;;3.00;3.00;;;;;17.50;41.98;101056.97;5055139;28;45973;-78
2023/06/04 06:19:07;;;;;;;;;3.00;2.00;;;;;17.53;41.87;101064.66;5055108;28;46487;-73
2023/06/04 06:24:53;;;;;;;;;3.75;3.00;;;;;17.58;41.82;101056.28;5055260;28;45685;-78
2023/06/04 06:27:19;;;;;;;;;5.00;4.00;;;;;17.60;42.06;101057.81;5053944;28;45611;-78
2023/06/04 06:29:44;;;;;;;;;3.00;2.25;;;;;17.64;42.38;101060.19;5055315;28;46507;-76
2023/06/04 06:32:10;;;;;;;;;3.00;3.00;;;;;17.65;41.84;101056.56;5054846;28;45596;-78
2023/06/04 06:34:37;;;;;;;;;3.00;3.00;;;;;17.66;41.87;101066.16;5055393;28;45766;-79
2023/06/04 06:37:02;;;;;;;;;2.00;2.00;;;;;17.69;42.11;101066.75;5055289;28;45490;-76
2023/06/04 06:39:28;;;;;;;;;4.00;3.00;;;;;17.68;41.56;101059.75;5055274;28;46721;-79
2023/06/04 06:41:53;;;;;;;;;4.00;3.00;;;;;17.71;41.94;101070.06;5055221;28;45481;-79
2023/06/04 06:44:19;;;;;;;;;2.50;2.00;;;;;17.72;42.12;101065.59;5055304;28;45573;-78
2023/06/04 06:46:44;;;;;;;;;3.00;2.75;;;;;17.69;42.07;101053.50;5054948;28;45708;-76
2023/06/04 06:49:09;;;;;;;;;3.75;3.00;;;;;17.74;41.99;101072.44;5055116;28;46515;-78
2023/06/04 06:55:10;;;;;;;;;3.75;3.00;;;;;17.78;42.18;101062.38;5045166;28;46621;-77
2023/06/04 06:57:35;;;;;;;;;2.00;2.00;;;;;17.79;41.62;101069.34;5054748;28;45650;-78
2023/06/04 07:00:00;;;;;;;;;4.00;4.00;;;;;17.84;42.04;101075.06;5054846;28;45643;-76
2023/06/04 07:02:26;;;;;;;;;3.00;3.00;;;;;17.85;42.14;101063.47;5054766;28;45664;-79
2023/06/04 07:04:51;;;;;;;;;1.25;0.75;;;;;17.89;41.88;101064.84;5052575;28;45702;-76
2023/06/04 07:07:17;;;;;;;;;2.25;2.25;;;;;17.89;41.83;101059.56;5054867;28;45580;-77
2023/06/04 07:09:42;;;;;;;;;3.00;2.75;;;;;17.93;41.70;101063.56;5054773;28;46124;-78
2023/06/04 07:12:08;;;;;;;;;1.50;1.00;;;;;17.98;41.77;101071.94;5055091;28;45700;-78
2023/06/04 07:14:33;;;;;;;;;4.75;4.00;;;;;18.01;41.74;101072.50;5054296;28;45828;-78
2023/06/04 07:16:58;;;;;;;;;4.00;3.50;;;;;18.06;41.76;101074.72;5054620;28;45823;-78
2023/06/04 07:19:23;;;;;;;;;3.00;2.00;;;;;18.09;41.42;101071.75;5054676;28;46412;-77
2023/06/04 07:25:11;;;;;;;;;1.75;1.00;;;;;18.22;41.14;101071.44;5054117;28;45685;-78
2023/06/04 07:27:36;;;;;;;;;2.75;2.75;;;;;18.27;41.79;101069.16;5054605;28;45860;-78
2023/06/04 07:30:02;;;;;;;;;2.00;2.00;;;;;18.31;41.49;101066.06;5054639;28;45704;-77
2023/06/04 07:32:27;;;;;;;;;3.00;2.75;;;;;18.35;41.47;101075.38;5054454;28;46327;-77
2023/06/04 07:34:53;;;;;;;;;3.00;3.00;;;;;18.41;41.03;101066.84;5054204;28;45642;-76
2023/06/04 07:40:40;;;;;;;;;3.50;2.75;;;;;18.53;41.08;101072.78;5054334;28;45653;-75
2023/06/04 07:43:05;;;;;;;;;3.75;3.00;;;;;18.60;40.73;101065.94;5053455;28;46023;-75
2023/06/04 07:45:30;;;;;;;;;3.00;3.00;;;;;18.65;40.97;101066.31;5054444;28;45618;-75
2023/06/04 07:47:56;;;;;;;;;2.50;2.25;;;;;18.72;41.23;101067.41;5054015;28;45858;-73
2023/06/04 07:50:21;;;;;;;;;5.50;4.00;;;;;18.76;40.99;101071.41;5053730;28;46188;-75
2023/06/04 07:52:47;;;;;;;;;4.00;3.25;;;;;18.81;40.84;101070.97;5053664;28;47053;-75
2023/06/04 07:55:12;;;;;;;;;3.25;3.00;;;;;18.88;40.75;101065.88;5053448;28;45573;-77
2023/06/04 07:57:38;;;;;;;;;2.25;2.25;;;;;18.93;40.80;101068.94;5053754;28;45617;-78
2023/06/04 08:00:05;;;;;;;;;4.50;3.25;;;;;18.97;40.58;101067.63;5052868;28;48292;-78
2023/06/04 08:02:31;;;;;;;;;3.75;3.00;;;;;19.00;40.77;101060.19;5059604;28;45497;-79
2023/06/04 08:04:56;;;;;;;;;4.00;4.00;;;;;19.04;40.67;101060.72;5056820;28;45539;-80
2023/06/04 08:10:43;;;;;;;;;3.00;3.00;;;;;19.17;40.22;101069.13;5053537;28;45627;-75
2023/06/04 08:13:09;;;;;;;;;3.00;2.75;;;;;19.20;40.48;101063.53;5051868;28;45904;-76
2023/06/04 08:15:35;;;;;;;;;4.75;3.00;;;;;19.23;40.26;101068.53;5053232;28;45608;-73
2023/06/04 08:18:00;;;;;;;;;5.25;5.00;;;;;19.28;40.50;101056.44;5053400;28;45824;-74
2023/06/04 08:20:26;;;;;;;;;5.25;3.75;;;;;19.34;40.06;101060.31;5053457;28;46388;-74
2023/06/04 08:26:13;;;;;;;;;3.00;3.00;;;;;19.44;40.26;101068.19;5053261;28;45714;-77
2023/06/04 08:28:38;;;;;;;;;4.00;3.00;;;;;19.51;39.82;101059.47;5053532;28;45634;-79
2023/06/04 08:31:04;;;;;;;;;4.50;3.00;;;;;19.56;39.82;101054.53;5053220;28;47549;-78
2023/06/04 08:33:29;;;;;;;;;3.25;3.25;;;;;19.64;40.14;101056.41;5053534;28;46262;-77
2023/06/04 08:35:55;;;;;;;;;3.00;3.00;;;;;19.73;40.03;101058.13;5053265;28;45558;-76
2023/06/04 08:38:21;;;;;;;;;5.00;3.00;;;;;19.80;39.55;101061.81;5052917;28;45963;-77
2023/06/04 08:40:52;;;;;;;;;4.00;3.50;;;;;19.88;39.51;101058.38;5053554;28;46577;-77
2023/06/04 08:43:19;;;;;;;;;3.50;2.75;;;;;19.95;39.44;101059.41;5052018;28;45941;-84
2023/06/04 08:45:50;;;;;;;;;4.00;4.00;;;;;20.00;38.92;101049.97;5053223;28;45722;-79
2023/06/04 08:48:20;;;;;;;;;4.50;4.25;;;;;20.09;39.02;101051.66;5053095;28;45578;-78
2023/06/04 08:50:51;;;;;;;;;5.00;4.00;;;;;20.19;38.70;101050.72;5053209;28;45552;-78
2023/06/04 08:56:38;;;;;;;;;2.50;2.50;;;;;20.30;38.49;101047.75;5045979;28;45613;-78
2023/06/04 08:59:08;;;;;;;;;3.00;3.00;;;;;20.41;38.68;101061.63;5056917;28;45626;-78
2023/06/04 09:01:36;;;;;;;;;3.00;3.00;;;;;20.47;37.70;101060.97;5055136;28;47333;-78
2023/06/04 09:04:07;;;;;;;;;4.00;3.00;;;;;20.52;37.54;101047.19;5056752;28;46000;-78
2023/06/04 09:06:33;;;;;;;;;4.00;2.00;;;;;20.59;37.38;101048.19;5055165;28;45664;-78
2023/06/04 09:09:03;;;;;;;;;4.00;3.00;;;;;20.68;37.29;101046.38;5057035;28;45623;-77
2023/06/04 09:11:35;;;;;;;;;3.25;3.00;;;;;20.75;37.16;101050.06;5056044;28;46740;-78
2023/06/04 09:14:03;;;;;;;;;4.00;3.25;;;;;20.82;36.75;101049.25;5053891;28;46393;-77
2023/06/04 09:16:36;;;;;;;;;1.50;1.50;;;;;20.87;35.86;101046.09;5055731;28;45590;-76
2023/06/04 09:19:02;;;;;;;;;4.50;3.25;;;;;20.93;35.96;101032.94;5070398;28;45616;-77
2023/06/04 09:21:27;;;;;;;;;6.75;3.75;;;;;21.02;35.35;101036.44;5055846;28;46423;-77
2023/06/04 09:23:53;;;;;;;;;4.00;2.75;;;;;21.07;35.82;101034.09;5055672;28;46029;-76
2023/06/04 09:26:18;;;;;;;;;2.75;2.50;;;;;21.13;35.29;101035.28;5055706;28;45460;-76
2023/06/04 09:28:45;;;;;;;;;2.00;2.00;;;;;21.22;34.69;101044.94;5056494;28;45551;-77
2023/06/04 09:31:15;;;;;;;;;2.00;2.00;;;;;21.27;34.98;101035.47;5056284;28;45567;-76
2023/06/04 09:33:45;;;;;;;;;3.00;2.25;;;;;21.35;34.61;101045.28;5056022;28;46561;-77
2023/06/04 09:36:11;;;;;;;;;1.75;1.75;;;;;21.41;34.44;101044.63;5055940;28;45580;-77
2023/06/04 09:42:03;;;;;;;;;3.00;2.00;;;;;21.56;34.11;101048.25;5056075;28;45445;-76
2023/06/04 09:44:29;;;;;;;;;3.00;2.50;;;;;21.61;33.16;101050.41;5056404;28;46692;-77
2023/06/04 09:46:56;;;;;;;;;3.00;2.25;;;;;21.67;32.29;101050.56;5056071;28;45640;-76
2023/06/04 09:49:22;;;;;;;;;3.00;3.00;;;;;21.76;32.47;101040.72;5056381;28;45692;-77
2023/06/04 09:51:48;;;;;;;;;2.25;2.25;;;;;21.82;32.62;101045.34;5056126;28;46203;-77
2023/06/04 09:54:15;;;;;;;;;2.75;1.50;;;;;21.90;32.59;101047.19;5055936;28;45578;-77
2023/06/04 09:56:42;;;;;;;;;3.50;1.50;;;;;21.97;32.82;101056.22;5055448;28;45683;-77
2023/06/04 09:59:09;;;;;;;;;2.00;2.00;;;;;22.05;32.43;101059.66;5056310;28;45641;-77
2023/06/04 10:01:38;;;;;;;;;3.50;3.50;;;;;22.12;32.73;101052.66;5056032;28;46423;-75
2023/06/04 10:04:07;;;;;;;;;1.50;1.50;;;;;22.16;32.08;101050.44;5055804;28;45788;-78
2023/06/04 10:06:34;;;;;;;;;2.00;2.00;;;;;22.24;32.01;101054.94;5054339;28;45655;-78
2023/06/04 10:12:29;;;;;;;;;3.00;2.00;;;;;22.37;31.60;101060.53;5054901;28;45605;-76
2023/06/04 10:15:12;;;;;;;;;1.75;1.75;;;;;22.42;31.18;101064.34;5055537;28;45930;-78
2023/06/04 10:17:38;;;;;;;;;2.00;2.00;;;;;22.42;31.68;101042.16;5055438;28;45708;-78
2023/06/04 10:20:05;;;;;;;;;2.50;2.00;;;;;22.48;31.79;101044.97;5056560;28;45746;-79
2023/06/04 10:22:31;;;;;;;;;3.50;3.00;;;;;22.55;30.52;101059.28;5054444;28;46592;-77
2023/06/04 10:24:58;;;;;;;;;3.00;3.00;;;;;22.60;30.64;101056.91;5056054;28;46286;-80
2023/06/04 10:27:24;;;;;;;;;2.00;2.00;;;;;22.66;29.96;101057.22;5055521;28;45730;-79
2023/06/04 10:29:49;;;;;;;;;3.50;3.50;;;;;22.68;30.79;101049.84;5055975;28;45624;-79
2023/06/04 10:32:15;;;;;;;;;1.75;1.75;;;;;22.73;30.50;101048.31;5055387;28;46360;-79
2023/06/04 10:34:40;;;;;;;;;2.75;2.25;;;;;22.80;31.36;101053.81;5055585;28;46060;-80
2023/06/04 10:37:06;;;;;;;;;2.50;2.50;;;;;22.82;30.79;101046.44;5055742;28;45958;-80
2023/06/04 10:39:32;;;;;;;;;2.00;2.00;;;;;22.85;29.63;101041.56;5053941;28;45967;-79
2023/06/04 10:42:02;;;;;;;;;2.00;1.00;;;;;22.92;29.08;101045.22;5055685;28;46446;-79
2023/06/04 10:44:30;;;;;;;;;5.00;4.00;;;;;22.94;28.79;101047.72;5055857;28;45929;-78
2023/06/04 10:46:56;;;;;;;;;2.00;2.00;;;;;22.98;29.07;101032.97;5054975;28;45602;-80
2023/06/04 10:49:30;;;;;;;;;2.00;2.00;;;;;23.06;28.13;101045.41;5055498;28;45502;-82
2023/06/04 10:52:03;;;;;;;;;2.50;2.00;;;;;23.09;28.66;101045.91;5054816;28;45576;-81
2023/06/04 10:58:00;;;;;;;;;3.00;2.25;;;;;23.18;27.02;101047.50;5045219;28;45728;-76
2023/06/04 11:00:45;;;;;;;;;2.50;2.50;;;;;23.21;27.85;101047.13;5054669;28;45632;-77
2023/06/04 11:03:12;;;;;;;;;2.00;2.00;;;;;23.26;28.36;101038.59;5054543;28;46644;-77
2023/06/04 11:05:42;;;;;;;;;4.50;3.75;;;;;23.32;28.87;101053.91;5055395;28;46597;-77
2023/06/04 11:08:09;;;;;;;;;3.00;3.00;;;;;23.36;28.74;101048.00;5054625;28;45723;-76
2023/06/04 11:10:39;;;;;;;;;4.75;3.00;;;;;23.40;28.15;101054.66;5054355;28;45699;-76
2023/06/04 11:13:06;;;;;;;;;5.50;4.00;;;;;23.44;27.90;101047.94;5054407;28;47037;-77
2023/06/04 11:15:39;;;;;;;;;2.75;2.75;;;;;23.50;28.69;101048.25;5052656;28;46553;-76
2023/06/04 11:18:04;;;;;;;;;3.50;3.00;;;;;23.52;27.53;101043.56;5052967;28;45778;-76
2023/06/04 11:20:30;;;;;;;;;3.00;3.00;;;;;23.56;27.53;101055.53;5054645;28;45550;-76
2023/06/04 11:22:58;;;;;;;;;3.00;3.00;;;;;23.57;26.81;101050.00;5054369;28;45659;-77
2023/06/04 11:25:24;;;;;;;;;2.75;2.25;;;;;23.59;26.32;101061.34;5054093;28;46195;-76
2023/06/04 11:27:52;;;;;;;;;2.25;2.25;;;;;23.60;26.96;101062.19;5054250;28;45713;-76
2023/06/04 11:30:18;;;;;;;;;3.00;3.00;;;;;23.62;27.15;101065.53;5054812;28;45628;-76
2023/06/04 11:32:43;;;;;;;;;3.00;2.25;;;;;23.63;27.47;101054.63;5053754;28;45552;-75
2023/06/04 11:35:11;;;;;;;;;3.00;3.00;;;;;23.66;26.82;101056.09;5053356;28;45797;-75
2023/06/04 11:37:37;;;;;;;;;4.00;4.00;;;;;23.66;27.81;101050.75;5054272;28;45642;-75
2023/06/04 11:43:24;;;;;;;;;2.25;2.25;;;;;23.74;26.96;101054.19;5053806;28;45632;-77
2023/06/04 11:45:50;;;;;;;;;3.00;2.50;;;;;23.75;26.91;101057.69;5053813;28;46209;-75
2023/06/04 11:48:16;;;;;;;;;3.00;2.00;;;;;23.72;27.39;101045.50;5053909;28;45717;-77
2023/06/04 11:50:42;;;;;;;;;2.00;2.00;;;;;23.76;26.89;101051.31;5054073;28;45610;-76
2023/06/04 11:53:07;;;;;;;;;3.25;3.00;;;;;23.77;27.24;101044.94;5053426;28;46522;-77
2023/06/04 11:55:33;;;;;;;;;3.00;3.00;;;;;23.81;27.19;101055.09;5054106;28;45742;-74
2023/06/04 11:57:59;;;;;;;;;4.00;4.00;;;;;23.84;27.53;101059.25;5053081;28;45595;-75
2023/06/04 12:00:25;;;;;;;;;3.75;3.00;;;;;23.89;27.90;101054.19;5054295;28;45763;-78
2023/06/04 12:02:55;;;;;;;;;3.25;3.00;;;;;23.93;26.74;101060.81;5053498;28;45560;-77
2023/06/04 12:05:23;;;;;;;;;2.00;2.00;;;;;23.96;26.85;101054.28;5053479;28;46625;-76
2023/06/04 12:07:50;;;;;;;;;3.00;2.50;;;;;24.00;26.66;101053.72;5052131;28;45479;-75
2023/06/04 12:13:37;;;;;;;;;2.00;2.00;;;;;24.07;26.74;101053.81;5053000;28;45615;-74
2023/06/04 12:16:03;;;;;;;;;2.50;2.50;;;;;24.10;26.37;101042.72;5053103;28;45784;-74
2023/06/04 12:18:28;;;;;;;;;2.50;2.50;;;;;24.15;26.80;101040.31;5053092;28;45589;-74
2023/06/04 12:20:54;;;;;;;;;3.00;3.00;;;;;24.15;25.69;101043.81;5053826;28;45450;-74
2023/06/04 12:23:20;;;;;;;;;3.75;3.75;;;;;24.15;26.69;101027.75;5053483;28;45550;-75
2023/06/04 12:25:51;;;;;;;;;4.00;4.00;;;;;24.19;26.99;101036.28;5052872;28;46829;-75
2023/06/04 12:28:19;;;;;;;;;3.00;3.00;;;;;24.22;27.07;101031.38;5052794;28;45608;-75
2023/06/04 12:30:44;;;;;;;;;2.75;2.00;;;;;24.28;27.26;101026.31;5052102;28;45838;-75
2023/06/04 12:33:11;;;;;;;;;3.00;2.50;;;;;24.29;26.31;101027.97;5051239;28;47584;-75
2023/06/04 12:35:38;;;;;;;;;3.50;3.00;;;;;24.30;27.07;101018.88;5051556;28;46532;-75
2023/06/04 12:38:05;;;;;;;;;4.00;4.00;;;;;24.32;26.81;101015.03;5052870;28;45600;-74
2023/06/04 12:43:52;;;;;;;;;4.00;3.00;;;;;24.42;26.91;101023.56;5053139;28;46244;-76
2023/06/04 12:46:17;;;;;;;;;3.50;3.25;;;;;24.46;27.01;101021.34;5052908;28;46088;-77
2023/06/04 12:48:42;;;;;;;;;2.50;2.50;;;;;24.49;27.13;101027.16;5053409;28;45536;-75
2023/06/04 12:51:10;;;;;;;;;3.75;2.50;;;;;24.55;27.79;101023.75;5053367;28;45730;-77
2023/06/04 13:00:16;;;;;;;;;3.00;3.00;;;;;24.64;26.17;101009.19;5050337;28;45872;-74
2023/06/04 13:02:41;;;;;;;;;2.75;2.75;;;;;24.66;26.50;101006.31;5051794;28;45514;-75